createdAt,value
2017-03-20T16:25:36.545Z,4.45
2017-03-20T16:26:35.847Z,4.18
2017-03-20T16:27:35.135Z,3.30
2017-03-20T16:28:34.401Z,2.93
2017-03-20T16:29:34.443Z,2.88
2017-03-20T16:30:33.692Z,2.45
2017-03-20T16:31:32.974Z,3.82
2017-03-20T16:32:32.281Z,3.62
2017-03-20T16:33:31.602Z,3.00
2017-03-20T16:34:30.930Z,3.53
2017-03-20T16:35:30.217Z,3.15
2017-03-20T16:36:29.524Z,3.43
2017-03-20T16:37:28.785Z,3.68
2017-03-20T16:38:28.113Z,4.40
2017-03-20T16:39:27.398Z,4.68
2017-03-20T16:40:26.700Z,3.47
2017-03-20T16:41:25.958Z,2.40
2017-03-20T16:42:25.235Z,3.10
2017-03-20T16:43:24.614Z,2.33
2017-03-20T16:44:23.950Z,2.62
2017-03-20T16:45:23.280Z,4.78
2017-03-20T16:46:22.547Z,3.97
2017-03-20T16:47:21.821Z,3.02
2017-03-20T16:48:21.066Z,3.95
2017-03-20T16:49:20.333Z,3.10
2017-03-20T16:50:19.892Z,2.87
2017-03-20T16:51:19.142Z,4.42
2017-03-20T16:52:18.397Z,2.45
2017-03-20T16:53:17.682Z,3.03
2017-03-20T16:54:16.949Z,3.43
2017-03-20T16:55:16.222Z,1.83
2017-03-20T16:56:15.531Z,2.75
2017-03-20T16:57:14.809Z,2.18
2017-03-20T16:58:14.127Z,3.92
2017-03-20T16:59:13.389Z,3.13
2017-03-20T17:00:12.714Z,6.18
2017-03-20T17:01:12.028Z,2.48
2017-03-20T17:02:11.332Z,4.45
2017-03-20T17:03:10.613Z,2.48
2017-03-20T17:04:09.915Z,2.68
2017-03-20T17:05:09.201Z,2.68
2017-03-20T17:06:08.449Z,3.30
2017-03-20T17:07:07.721Z,2.77
2017-03-20T17:08:07.009Z,5.32
2017-03-20T17:09:06.452Z,3.00
2017-03-20T17:10:05.797Z,2.65
2017-03-20T17:11:05.057Z,2.85
2017-03-20T17:12:04.350Z,2.95
2017-03-20T17:13:03.634Z,2.92
2017-03-20T17:14:02.907Z,7.13
2017-03-20T17:15:02.153Z,5.32
2017-03-20T17:16:01.417Z,4.80
2017-03-20T17:17:00.664Z,4.40
2017-03-20T17:17:59.979Z,3.47
2017-03-20T17:18:59.258Z,2.97
2017-03-20T17:19:58.707Z,4.38
2017-03-20T17:20:57.983Z,2.37
2017-03-20T17:21:57.262Z,5.57
2017-03-20T17:22:56.514Z,4.38
2017-03-20T17:23:55.891Z,5.28
2017-03-20T17:24:55.240Z,3.15
2017-03-20T17:25:54.521Z,3.45
2017-03-20T17:26:53.805Z,4.17
2017-03-20T17:27:53.064Z,5.10
2017-03-20T17:28:53.128Z,2.87
2017-03-20T17:29:53.649Z,2.82
2017-03-20T17:30:52.910Z,2.70
2017-03-20T17:31:52.203Z,3.30
2017-03-20T17:32:51.534Z,4.92
2017-03-20T17:33:51.363Z,4.25
2017-03-20T17:34:50.656Z,3.98
2017-03-20T17:35:50.701Z,3.17
2017-03-20T17:36:50.032Z,4.50
2017-03-20T17:37:49.348Z,5.08
2017-03-20T17:38:49.404Z,2.92
2017-03-20T17:39:48.698Z,6.42
2017-03-20T17:40:48.402Z,3.17
2017-03-20T17:41:47.729Z,3.63
2017-03-20T17:42:47.025Z,4.83
2017-03-20T17:43:46.895Z,3.20
2017-03-20T17:44:46.165Z,5.02
2017-03-20T17:45:45.442Z,3.40
2017-03-20T17:46:44.735Z,6.22
2017-03-20T17:47:44.463Z,4.35
2017-03-20T17:48:43.737Z,4.00
2017-03-20T17:49:43.029Z,3.17
2017-03-20T17:50:42.309Z,5.18
2017-03-20T17:51:42.065Z,3.57
2017-03-20T17:52:41.430Z,3.68
2017-03-20T17:53:40.773Z,5.02
2017-03-20T17:54:40.227Z,6.38
2017-03-20T17:55:39.506Z,5.68
2017-03-20T17:56:38.793Z,5.05
2017-03-20T17:57:38.469Z,4.55
2017-03-20T17:58:37.753Z,5.60
2017-03-20T17:59:37.091Z,4.03
2017-03-20T18:00:36.406Z,6.08
2017-03-20T18:01:35.714Z,4.67
2017-03-20T18:02:35.745Z,5.17
2017-03-20T18:03:35.045Z,4.60
2017-03-20T18:04:34.313Z,6.33
2017-03-20T18:05:33.643Z,4.28
2017-03-20T18:06:33.661Z,4.52
2017-03-20T18:07:32.945Z,3.95
2017-03-20T18:08:32.192Z,4.32
2017-03-20T18:09:31.493Z,4.10
2017-03-20T18:10:30.809Z,5.78
2017-03-20T18:11:30.141Z,4.33
2017-03-20T18:12:30.198Z,4.17
2017-03-20T18:13:29.513Z,3.77
2017-03-20T18:14:28.840Z,4.15
2017-03-20T18:15:28.173Z,5.12
2017-03-20T18:16:27.498Z,6.55
2017-03-20T18:17:26.812Z,6.15
2017-03-20T18:18:26.083Z,6.42
2017-03-20T18:19:25.373Z,4.00
2017-03-20T18:20:24.701Z,5.73
2017-03-20T18:21:24.045Z,4.93
2017-03-20T18:22:23.371Z,5.83
2017-03-20T18:23:23.105Z,5.18
2017-03-20T18:24:22.397Z,5.63
2017-03-20T18:25:21.769Z,5.00
2017-03-20T18:26:21.787Z,6.10
2017-03-20T18:27:21.094Z,4.98
2017-03-20T18:28:20.426Z,4.55
2017-03-20T18:29:19.730Z,5.07
2017-03-20T18:30:19.014Z,5.10
2017-03-20T18:31:18.360Z,4.75
2017-03-20T18:32:17.651Z,6.35
2017-03-20T18:33:16.937Z,7.27
2017-03-20T18:34:16.210Z,5.00
2017-03-20T18:35:15.489Z,5.80
2017-03-20T18:36:15.514Z,6.70
2017-03-20T18:37:14.817Z,5.25
2017-03-20T18:38:14.149Z,7.83
2017-03-20T18:39:13.417Z,5.05
2017-03-20T18:40:12.750Z,5.98
2017-03-20T18:41:12.058Z,10.17
2017-03-20T18:42:11.890Z,5.90
2017-03-20T18:43:11.186Z,6.88
2017-03-20T18:44:10.453Z,9.60
2017-03-20T18:45:10.299Z,7.13
2017-03-20T18:46:09.606Z,5.52
2017-03-20T18:47:08.925Z,7.70
2017-03-20T18:48:08.598Z,5.87
2017-03-20T18:49:07.854Z,6.38
2017-03-20T18:50:07.282Z,4.78
2017-03-20T18:51:06.746Z,5.47
2017-03-20T18:52:06.105Z,6.25
2017-03-20T18:53:05.365Z,6.43
2017-03-20T18:54:04.718Z,5.82
2017-03-20T18:55:04.822Z,6.63
2017-03-20T18:56:04.132Z,6.82
2017-03-20T18:57:03.448Z,4.52
2017-03-20T18:58:02.749Z,5.10
2017-03-20T18:59:02.304Z,4.95
2017-03-20T19:00:02.260Z,6.08
2017-03-20T19:01:01.606Z,5.35
2017-03-20T19:02:01.009Z,5.33
2017-03-20T19:03:00.298Z,4.85
2017-03-20T19:03:59.643Z,6.73
2017-03-20T19:04:58.962Z,5.40
2017-03-20T19:05:58.312Z,5.25
2017-03-20T19:06:59.145Z,5.28
2017-03-20T19:07:58.543Z,5.03
2017-03-20T19:08:57.861Z,6.82
2017-03-20T19:09:57.204Z,5.75
2017-03-20T19:10:56.526Z,5.90
2017-03-20T19:11:55.842Z,5.97
2017-03-20T19:12:55.150Z,5.08
2017-03-20T19:13:54.473Z,4.52
2017-03-20T19:14:54.542Z,4.95
2017-03-20T19:15:53.888Z,4.70
2017-03-20T19:16:53.246Z,7.25
2017-03-20T19:17:52.560Z,5.63
2017-03-20T19:18:51.813Z,6.57
2017-03-20T19:19:51.102Z,5.55
2017-03-20T19:20:50.420Z,5.40
2017-03-20T19:21:50.038Z,6.38
2017-03-20T19:22:49.366Z,6.20
2017-03-20T19:23:48.637Z,5.00
2017-03-20T19:24:48.092Z,5.45
2017-03-20T19:25:47.589Z,6.40
2017-03-20T19:26:47.161Z,6.53
2017-03-20T19:27:46.429Z,6.62
2017-03-20T19:28:46.403Z,5.43
2017-03-20T19:29:45.655Z,5.27
2017-03-20T19:30:45.041Z,3.88
2017-03-20T19:31:44.453Z,5.20
2017-03-20T19:32:44.302Z,4.88
2017-03-20T19:33:43.736Z,7.08
2017-03-20T19:34:42.994Z,5.05
2017-03-20T19:35:42.366Z,8.37
2017-03-20T19:36:41.734Z,4.67
2017-03-20T19:37:41.807Z,5.68
2017-03-20T19:38:41.417Z,5.30
2017-03-20T19:39:40.714Z,6.33
2017-03-20T19:40:40.101Z,6.65
2017-03-20T19:41:42.161Z,6.80
2017-03-20T19:42:42.222Z,6.50
2017-03-20T19:43:41.593Z,7.63
2017-03-20T19:44:40.906Z,6.72
2017-03-20T19:45:40.177Z,7.43
2017-03-20T19:46:39.514Z,6.52
2017-03-20T19:47:38.864Z,6.12
2017-03-20T19:48:38.279Z,6.88
2017-03-20T19:49:37.713Z,5.90
2017-03-20T19:50:37.143Z,6.67
2017-03-20T19:51:36.437Z,7.67
2017-03-20T19:52:35.763Z,8.02
2017-03-20T19:53:35.097Z,6.18
2017-03-20T19:54:34.461Z,9.18
2017-03-20T19:55:34.335Z,5.92
2017-03-20T19:56:34.093Z,7.93
2017-03-20T19:57:33.979Z,7.77
2017-03-20T19:58:33.264Z,6.30
2017-03-20T19:59:33.329Z,8.93
2017-03-20T20:00:32.678Z,7.88
2017-03-20T20:01:31.960Z,8.33
2017-03-20T20:02:31.259Z,5.73
2017-03-20T20:03:30.572Z,6.45
2017-03-20T20:04:30.589Z,8.48
2017-03-20T20:05:29.917Z,5.62
2017-03-20T20:06:29.218Z,5.58
2017-03-20T20:07:28.519Z,5.65
2017-03-20T20:08:28.235Z,8.15
2017-03-20T20:09:27.782Z,6.87
2017-03-20T20:10:27.143Z,6.75
2017-03-20T20:11:26.414Z,7.32
2017-03-20T20:12:25.757Z,8.48
2017-03-20T20:13:25.045Z,9.67
2017-03-20T20:14:24.399Z,6.72
2017-03-20T20:15:23.721Z,8.10
2017-03-20T20:16:23.007Z,7.13
2017-03-20T20:17:22.338Z,9.92
2017-03-20T20:18:21.686Z,6.62
2017-03-20T20:19:21.138Z,6.83
2017-03-20T20:20:21.001Z,6.57
2017-03-20T20:21:20.393Z,7.02
2017-03-20T20:22:19.774Z,7.58
2017-03-20T20:23:19.080Z,7.03
2017-03-20T20:24:18.366Z,7.90
2017-03-20T20:25:17.646Z,7.35
2017-03-20T20:26:16.958Z,8.27
2017-03-20T20:27:16.342Z,6.45
2017-03-20T20:28:15.649Z,7.17
2017-03-20T20:29:15.077Z,7.80
2017-03-20T20:30:14.433Z,7.85
2017-03-20T20:31:13.826Z,7.17
2017-03-20T20:32:13.170Z,7.98
2017-03-20T20:33:12.534Z,6.12
2017-03-20T20:34:11.913Z,5.10
2017-03-20T20:35:11.214Z,5.60
2017-03-20T20:36:10.549Z,6.03
2017-03-20T20:37:09.845Z,7.42
2017-03-20T20:38:09.140Z,5.75
2017-03-20T20:39:08.402Z,6.25
2017-03-20T20:40:09.624Z,6.12
2017-03-20T20:41:08.947Z,7.65
2017-03-20T20:42:08.306Z,8.42
2017-03-20T20:43:07.577Z,7.07
2017-03-20T20:44:06.867Z,7.37
2017-03-20T20:45:07.217Z,5.73
2017-03-20T20:46:06.815Z,9.00
2017-03-20T20:47:06.135Z,5.85
2017-03-20T20:48:05.786Z,7.52
2017-03-20T20:49:05.077Z,8.62
2017-03-20T20:50:04.453Z,7.08
2017-03-20T20:51:03.726Z,7.60
2017-03-20T20:52:03.013Z,10.92
2017-03-20T20:53:04.338Z,7.22
2017-03-20T20:54:03.829Z,6.95
2017-03-20T20:55:03.117Z,10.73
2017-03-20T20:56:03.168Z,7.58
2017-03-20T20:57:02.520Z,7.38
2017-03-20T20:58:01.856Z,7.63
2017-03-20T20:59:01.817Z,7.37
2017-03-20T21:00:01.474Z,6.87
2017-03-20T21:01:00.748Z,6.37
2017-03-20T21:02:00.188Z,7.08
2017-03-20T21:02:59.445Z,6.48
2017-03-20T21:03:58.900Z,7.13
2017-03-20T21:04:58.182Z,12.48
2017-03-20T21:05:57.502Z,10.13
2017-03-20T21:06:57.063Z,7.87
2017-03-20T21:07:56.337Z,8.98
2017-03-20T21:08:55.674Z,7.43
2017-03-20T21:09:54.946Z,6.70
2017-03-20T21:10:54.467Z,9.30
2017-03-20T21:11:53.858Z,7.83
2017-03-20T21:12:53.135Z,6.40
2017-03-20T21:13:52.451Z,8.98
2017-03-20T21:14:51.754Z,6.67
2017-03-20T21:15:51.142Z,7.90
2017-03-20T21:16:50.556Z,8.85
2017-03-20T21:17:50.414Z,7.63
2017-03-20T21:18:49.786Z,6.83
2017-03-20T21:19:49.044Z,7.20
2017-03-20T21:20:48.430Z,6.50
2017-03-20T21:21:47.697Z,9.20
2017-03-20T21:22:47.701Z,8.27
2017-03-20T21:23:47.028Z,7.27
2017-03-20T21:24:46.355Z,8.68
2017-03-20T21:25:45.652Z,12.45
2017-03-20T21:26:44.950Z,9.60
2017-03-20T21:27:44.495Z,8.52
2017-03-20T21:28:44.202Z,7.22
2017-03-20T21:29:43.478Z,6.95
2017-03-20T21:30:42.761Z,11.68
2017-03-20T21:31:42.071Z,9.28
2017-03-20T21:32:42.118Z,6.55
2017-03-20T21:33:41.441Z,7.27
2017-03-20T21:34:40.746Z,7.92
2017-03-20T21:35:40.077Z,6.30
2017-03-20T21:36:39.385Z,7.30
2017-03-20T21:37:38.727Z,9.87
2017-03-20T21:38:38.014Z,6.62
2017-03-20T21:39:37.605Z,6.98
2017-03-20T21:40:36.886Z,8.08
2017-03-20T21:41:36.250Z,7.47
2017-03-20T21:42:35.640Z,8.13
2017-03-20T21:43:34.936Z,6.73
2017-03-20T21:44:34.233Z,6.98
2017-03-20T21:45:33.875Z,6.77
2017-03-20T21:46:33.935Z,7.28
2017-03-20T21:47:33.220Z,6.22
2017-03-20T21:48:32.502Z,8.33
2017-03-20T21:49:31.791Z,8.87
2017-03-20T21:50:31.066Z,6.12
2017-03-20T21:51:30.385Z,5.33
2017-03-20T21:52:29.661Z,5.85
2017-03-20T21:53:28.985Z,10.95
2017-03-20T21:54:28.266Z,7.23
2017-03-20T21:55:27.692Z,7.93
2017-03-20T21:56:27.021Z,7.37
2017-03-20T21:57:26.339Z,5.38
2017-03-20T21:58:25.628Z,5.88
2017-03-20T21:59:24.924Z,7.17
2017-03-20T22:00:24.258Z,5.60
2017-03-20T22:01:23.510Z,6.48
2017-03-20T22:02:23.241Z,5.57
2017-03-20T22:03:22.560Z,6.30
2017-03-20T22:04:21.909Z,5.12
2017-03-20T22:05:21.198Z,4.82
2017-03-20T22:06:20.572Z,5.63
2017-03-20T22:07:19.844Z,6.67
2017-03-20T22:08:19.261Z,4.90
2017-03-20T22:09:18.514Z,6.32
2017-03-20T22:10:17.845Z,4.95
2017-03-20T22:11:17.161Z,5.62
2017-03-20T22:12:16.425Z,6.32
2017-03-20T22:13:15.679Z,4.33
2017-03-20T22:14:15.041Z,4.52
2017-03-20T22:15:18.801Z,6.50
2017-03-20T22:16:18.084Z,5.35
2017-03-20T22:17:17.485Z,5.67
2017-03-20T22:18:16.893Z,5.23
2017-03-20T22:19:16.358Z,5.52
2017-03-20T22:20:16.004Z,5.05
2017-03-20T22:21:15.313Z,4.80
2017-03-20T22:22:14.605Z,4.58
2017-03-20T22:23:13.949Z,4.55
2017-03-20T22:24:13.557Z,5.17
2017-03-20T22:25:12.925Z,5.02
2017-03-20T22:26:12.222Z,5.58
2017-03-20T22:27:11.497Z,4.53
2017-03-20T22:28:10.754Z,4.37
2017-03-20T22:29:10.192Z,5.02
2017-03-20T22:30:09.505Z,7.25
2017-03-20T22:31:09.512Z,6.10
2017-03-20T22:32:08.818Z,5.87
2017-03-20T22:33:08.317Z,6.23
2017-03-20T22:34:08.101Z,5.52
2017-03-20T22:35:08.110Z,5.78
2017-03-20T22:36:07.416Z,8.10
2017-03-20T22:37:07.160Z,5.23
2017-03-20T22:38:06.450Z,4.70
2017-03-20T22:39:05.969Z,4.95
2017-03-20T22:40:05.393Z,4.00
2017-03-20T22:41:04.679Z,6.82
2017-03-20T22:42:07.445Z,4.92
2017-03-20T22:43:11.767Z,4.05
2017-03-20T22:44:22.333Z,4.93
2017-03-20T22:45:33.679Z,4.73
2017-03-20T22:46:44.554Z,5.82
2017-03-20T22:47:55.086Z,4.85
2017-03-20T22:49:06.373Z,6.28
2017-03-20T22:50:17.024Z,5.50
2017-03-20T22:51:27.450Z,4.60
2017-03-20T22:52:37.890Z,6.50
2017-03-20T22:53:48.265Z,7.37
2017-03-20T22:54:46.373Z,5.23
2017-03-20T22:55:44.488Z,4.37
2017-03-20T22:56:48.197Z,6.27
2017-03-20T22:57:47.550Z,4.58
2017-03-20T22:58:46.984Z,6.75
2017-03-20T22:59:46.326Z,6.00
2017-03-20T23:00:45.680Z,10.72
2017-03-20T23:01:44.994Z,6.57
2017-03-20T23:02:45.109Z,7.05
2017-03-20T23:03:44.441Z,6.55
2017-03-20T23:04:43.756Z,13.32
2017-03-20T23:05:43.108Z,6.92
2017-03-20T23:06:42.484Z,10.28
2017-03-20T23:07:41.782Z,8.60
2017-03-20T23:08:41.121Z,5.83
2017-03-20T23:09:40.724Z,5.67
2017-03-20T23:10:48.699Z,6.22
2017-03-20T23:11:53.501Z,5.85
2017-03-20T23:12:56.935Z,6.00
2017-03-20T23:13:56.242Z,4.83
2017-03-20T23:16:02.528Z,5.68
2017-03-20T23:17:04.585Z,7.18
2017-03-20T23:18:03.925Z,4.62
2017-03-20T23:19:03.278Z,5.37
2017-03-20T23:20:02.549Z,5.15
2017-03-20T23:21:01.882Z,6.13
2017-03-20T23:22:01.247Z,5.85
2017-03-20T23:23:00.607Z,5.23
2017-03-20T23:24:01.685Z,6.83
2017-03-20T23:25:01.234Z,6.85
2017-03-20T23:26:04.639Z,4.70
2017-03-20T23:27:04.483Z,6.40
2017-03-20T23:28:03.876Z,5.68
2017-03-20T23:29:03.785Z,6.25
2017-03-20T23:30:03.185Z,5.33
2017-03-20T23:31:02.492Z,7.28
2017-03-20T23:32:03.665Z,5.25
2017-03-20T23:33:03.542Z,5.27
2017-03-20T23:34:02.809Z,5.67
2017-03-20T23:35:02.093Z,7.33
2017-03-20T23:36:02.532Z,6.13
2017-03-20T23:37:02.681Z,5.38
2017-03-20T23:38:02.084Z,6.30
2017-03-20T23:39:01.470Z,5.52
2017-03-20T23:40:03.248Z,9.30
2017-03-20T23:41:04.774Z,5.55
2017-03-20T23:42:05.230Z,5.92
2017-03-20T23:43:04.971Z,5.25
2017-03-20T23:44:04.301Z,4.55
2017-03-20T23:45:03.609Z,5.47
2017-03-20T23:46:03.642Z,6.28
2017-03-20T23:47:07.321Z,4.50
2017-03-20T23:48:06.617Z,5.73
2017-03-20T23:49:05.893Z,6.15
2017-03-20T23:50:05.186Z,6.47
2017-03-20T23:51:06.117Z,4.72
2017-03-20T23:52:06.328Z,5.12
2017-03-20T23:53:08.301Z,5.17
2017-03-20T23:54:11.087Z,5.20
2017-03-20T23:55:10.779Z,3.93
2017-03-20T23:56:10.157Z,4.67
2017-03-20T23:57:09.509Z,4.07
2017-03-20T23:58:09.367Z,3.60
2017-03-20T23:59:08.658Z,4.98
